Maersk Dayton — DDSC2 — position and weather

sailwx.info

Track history (hours):
 
Tides and Currents Weather Stations Pressure Air Temp Water Temp Dewpoint Dewpoint Depression Visibility Wind Speed Wind Dir Waves Ship Positions

Maersk Dayton

Last reported at 2014-Aug-16 09:06 UTC. Time now 2014-Aug-31 04:33 UTC.
Position N 49°04' W 010°14'.
Warning: this ship's position is 14 days out of date.

Length 281 m; beam 32.2 m; draft 12.5 m.

Type: Ship (hazmat cat A). MMSI: 218024000.

Date/timePositionNaut miles runAvg speedWind from/ knotsBaromVisibWave heightAir tempDewpointWater temp
2014-Aug-16 09:06N 49°04' W 010°14'35518.9
2014-Aug-15 14:19N 50°15' W 001°16'1517.6
2014-Aug-15 13:29N 50°20' W 000°53'1516.1
2014-Aug-15 12:33N 50°24' W 000°31'1616.2
2014-Aug-15 11:33N 50°28' W 000°07'1716.8
2014-Aug-15 10:33N 50°33' E 000°19'1818.2
2014-Aug-15 09:33N 50°40' E 000°45'2020.5
2014-Aug-15 08:34N 50°52' E 001°11'2020.4
2014-Aug-15 07:33N 51°06' E 001°35'1818.4
2014-Aug-15 06:33N 51°20' E 001°54'1514.7
2014-Aug-15 05:33N 51°21' E 002°18'1716.6
2014-Aug-15 04:32N 51°22' E 002°45'1515.3
2014-Aug-15 03:33N 51°24' E 003°08'1515.3
2014-Aug-15 02:33N 51°25' E 003°33'10 9.8
2014-Aug-15 01:34N 51°21' E 003°47'10 9.7
2014-Aug-15 00:34N 51°23' E 004°02'1010.1
2014-Aug-14 23:34N 51°18' E 004°16'1 0.6
2014-Aug-14 22:31N 51°18' E 004°16'0 0.0
2014-Aug-14 21:31N 51°18' E 004°16'0 0.0
2014-Aug-14 20:31N 51°18' E 004°16'0 0.0
2014-Aug-14 19:31N 51°18' E 004°16'0 0.0
2014-Aug-14 18:33N 51°18' E 004°16'0 0.0
2014-Aug-14 17:28N 51°18' E 004°16'0 0.0
2014-Aug-14 16:33N 51°18' E 004°16'0 0.0
2014-Aug-14 15:33N 51°18' E 004°16'0 0.0
2014-Aug-14 14:33N 51°18' E 004°16'0 0.0
2014-Aug-14 13:33N 51°18' E 004°16'0 0.0
2014-Aug-14 12:33N 51°18' E 004°16'0 0.0
2014-Aug-14 11:33N 51°18' E 004°16'0 0.0
2014-Aug-14 10:33N 51°18' E 004°16'0 0.0
2014-Aug-14 09:33N 51°18' E 004°16'0 0.0
2014-Aug-14 08:33N 51°18' E 004°16'0 0.0
2014-Aug-14 07:33N 51°18' E 004°16'0 0.0
2014-Aug-14 06:32N 51°18' E 004°16'0 0.0
2014-Aug-14 05:32N 51°18' E 004°16'0 0.0
2014-Aug-14 04:32N 51°18' E 004°16'0 0.0
2014-Aug-14 03:33N 51°18' E 004°16'4 3.8
2014-Aug-14 02:33N 51°21' E 004°14'1110.7
2014-Aug-14 01:34N 51°25' E 003°58'1010.3
2014-Aug-14 00:33N 51°26' E 003°42'1212.3
2014-Aug-13 23:34N 51°24' E 003°22'1313.2
2014-Aug-13 22:33N 51°25' E 003°01'1614.5
2014-Aug-13 21:27N 51°39' E 003°12'1312.7
2014-Aug-13 20:28N 51°51' E 003°18'1313.8
2014-Aug-13 19:31N 52°04' E 003°21'1714.7
2014-Aug-13 18:24N 52°20' E 003°26'5913.9
2014-Aug-13 14:08N 53°09' E 004°23'1817.9
2014-Aug-13 13:06N 53°26' E 004°35'1017.1
2014-Aug-13 12:30N 53°31' E 004°49'1717.5
2014-Aug-13 11:33N 53°37' E 005°15'1716.8
2014-Aug-13 10:33N 53°43' E 005°42'1817.5
2014-Aug-13 09:33N 53°49' E 006°10'5518.3
2014-Aug-13 06:33N 54°01' E 007°40'1919.0
2014-Aug-13 05:33N 54°00' E 008°13'1818.0
2014-Aug-13 04:34N 53°54' E 008°41'1413.6
2014-Aug-13 03:34N 53°52' E 009°04'1110.8
2014-Aug-13 02:33N 53°49' E 009°22'1212.1
2014-Aug-13 01:33N 53°39' E 009°31'1010.3
2014-Aug-13 00:33N 53°34' E 009°46'5 5.1
2014-Aug-12 23:33N 53°32' E 009°55'0 0.0
2014-Aug-12 22:33N 53°32' E 009°55'0 0.0
2014-Aug-12 21:32N 53°32' E 009°55'0 0.0
2014-Aug-12 20:33N 53°32' E 009°55'0 0.0
2014-Aug-12 19:33N 53°32' E 009°55'0 0.0
2014-Aug-12 18:31N 53°32' E 009°55'0 0.0
2014-Aug-12 17:31N 53°32' E 009°55'0 0.0
2014-Aug-12 16:31N 53°32' E 009°55'0 0.0
2014-Aug-12 15:31N 53°32' E 009°55'0 0.0
2014-Aug-12 14:31N 53°32' E 009°55'0 0.0
2014-Aug-12 13:31N 53°32' E 009°55'0 0.0
2014-Aug-12 12:31N 53°32' E 009°55'0 0.0
2014-Aug-12 11:33N 53°32' E 009°55'0 0.0
2014-Aug-12 10:31N 53°32' E 009°55'0 0.0
2014-Aug-12 09:31N 53°32' E 009°55'0 0.0
2014-Aug-12 08:32N 53°32' E 009°55'0 0.0
2014-Aug-12 07:33N 53°32' E 009°55'0 0.0
2014-Aug-12 06:32N 53°32' E 009°55'0 0.0
2014-Aug-12 05:32N 53°32' E 009°55'0 0.0
2014-Aug-12 04:32N 53°32' E 009°55'0 0.0
2014-Aug-12 03:32N 53°32' E 009°55'0 0.0
2014-Aug-12 02:32N 53°32' E 009°55'0 0.0
2014-Aug-12 01:32N 53°32' E 009°55'0 0.0
2014-Aug-12 00:33N 53°32' E 009°55'0 0.0
2014-Aug-11 23:33N 53°32' E 009°55'0 0.0
2014-Aug-11 22:33N 53°32' E 009°55'0 0.0
2014-Aug-11 21:33N 53°32' E 009°55'0 0.0
2014-Aug-11 20:33N 53°32' E 009°55'0 0.0
2014-Aug-11 19:33N 53°32' E 009°55'0 0.0
2014-Aug-11 18:33N 53°32' E 009°55'0 0.0
2014-Aug-11 17:33N 53°32' E 009°55'0 0.0
2014-Aug-11 16:33N 53°32' E 009°55'0 0.0
2014-Aug-11 15:33N 53°32' E 009°55'0 0.0
2014-Aug-11 14:33N 53°32' E 009°55'0 0.0
2014-Aug-11 13:31N 53°32' E 009°55'0 0.0
2014-Aug-11 12:33N 53°32' E 009°55'0 0.0
2014-Aug-11 11:31N 53°32' E 009°55'0 0.0
2014-Aug-11 10:30N 53°32' E 009°55'0 0.0
2014-Aug-11 09:33N 53°32' E 009°55'0 0.0
2014-Aug-11 08:33N 53°32' E 009°55'0 0.0
2014-Aug-11 07:33N 53°32' E 009°55'0 0.0
2014-Aug-11 06:33N 53°32' E 009°55'1 1.0
2014-Aug-11 05:33N 53°33' E 009°53'8 8.0
2014-Aug-11 04:34N 53°34' E 009°40'1211.9
2014-Aug-11 03:33N 53°44' E 009°27'1413.6
2014-Aug-11 02:33N 53°53' E 009°10'1414.5
2014-Aug-11 01:33N 53°51' E 008°46'1515.0
2014-Aug-11 00:33N 53°59' E 008°25'1515.4
2014-Aug-10 23:33N 53°58' E 007°59'1515.2
2014-Aug-10 22:33N 53°56' E 007°33'3417.1
2014-Aug-10 20:33N 53°48' E 006°37'1717.5
2014-Aug-10 19:33N 53°43' E 006°09'1717.2
2014-Aug-10 18:33N 53°38' E 005°41'1717.4
2014-Aug-10 17:33N 53°32' E 005°13'2019.6
2014-Aug-10 16:34N 53°24' E 004°43'2120.5
2014-Aug-10 15:33N 53°06' E 004°27'2221.9
2014-Aug-10 14:33N 52°47' E 004°08'2222.0
2014-Aug-10 13:33N 52°34' E 003°39'6320.9
2014-Aug-10 10:34N 52°10' E 002°05'1918.8
2014-Aug-10 09:34N 51°54' E 001°48'1111.1
2014-Aug-10 08:33N 51°48' E 001°33'1616.3
2014-Aug-10 07:33N 51°35' E 001°16'1515.2
2014-Aug-10 06:33N 51°29' E 000°54'1313.4
2014-Aug-10 05:34N 51°30' E 000°32'1 1.3
2014-Aug-10 04:31N 51°30' E 000°30'0 0.0
2014-Aug-10 03:31N 51°30' E 000°30'0 0.0
2014-Aug-10 02:31N 51°30' E 000°30'0 0.0
2014-Aug-10 01:31N 51°30' E 000°30'0 0.0
2014-Aug-10 00:31N 51°30' E 000°30'0 0.0
2014-Aug-09 23:31N 51°30' E 000°30'0 0.0
2014-Aug-09 22:34N 51°30' E 000°30'0 0.0
2014-Aug-09 21:32N 51°30' E 000°30'0 0.0
2014-Aug-09 20:33N 51°30' E 000°30'0 0.0
2014-Aug-09 19:33N 51°30' E 000°30'0 0.0
2014-Aug-09 18:32N 51°30' E 000°30'0 0.0
2014-Aug-09 17:34N 51°30' E 000°30'0 0.0
2014-Aug-09 16:34N 51°30' E 000°30'0 0.0
2014-Aug-09 15:34N 51°30' E 000°30'2 1.7
2014-Aug-09 14:34N 51°30' E 000°33'1111.0
2014-Aug-09 13:34N 51°29' E 000°51'1312.7
2014-Aug-09 12:34N 51°33' E 001°10'1312.9
2014-Aug-09 11:34N 51°41' E 001°27'1212.0
2014-Aug-09 10:33N 51°51' E 001°36'3 2.7
2014-Aug-09 09:31N 51°53' E 001°40'0 0.2
2014-Aug-09 08:31N 51°53' E 001°40'0 0.0
2014-Aug-09 07:31N 51°53' E 001°40'0 0.0
2014-Aug-09 06:31N 51°53' E 001°40'0 0.0
2014-Aug-09 05:31N 51°53' E 001°40'0 0.2
2014-Aug-09 04:31N 51°53' E 001°40'0 0.1
2014-Aug-09 03:31N 51°53' E 001°40'0 0.0
2014-Aug-09 02:31N 51°53' E 001°40'0 0.0
2014-Aug-09 01:31N 51°53' E 001°40'0 0.0
2014-Aug-09 00:31N 51°53' E 001°40'0 0.1
2014-Aug-08 23:31N 51°53' E 001°40'0 0.0
2014-Aug-08 22:31N 51°53' E 001°40'0 0.2
2014-Aug-08 21:31N 51°53' E 001°39'0 0.2
2014-Aug-08 20:31N 51°53' E 001°39'0 0.0
2014-Aug-08 19:31N 51°53' E 001°39'0 0.0
2014-Aug-08 18:31N 51°53' E 001°39'0 0.0
2014-Aug-08 17:31N 51°53' E 001°39'0 0.1
2014-Aug-08 16:31N 51°53' E 001°39'0 0.3
2014-Aug-08 15:31N 51°53' E 001°40'1111.4
2014-Aug-08 14:33N 52°02' E 001°51'1615.8
2014-Aug-08 13:33N 52°09' E 002°14'3816.5
2014-Aug-08 11:15N 52°13' E 003°15'1216.8
2014-Aug-08 10:33N 52°13' E 003°35'1211.9
2014-Aug-08 09:33N 52°11' E 003°54'9 8.5
2014-Aug-08 08:33N 52°02' E 003°54'1514.8
2014-Aug-08 07:33N 51°55' E 004°15'6 5.8
2014-Aug-08 06:31N 51°53' E 004°24'0 0.0
2014-Aug-08 05:31N 51°53' E 004°24'0 0.0
2014-Aug-08 04:31N 51°53' E 004°24'0 0.0
2014-Aug-08 03:31N 51°53' E 004°24'0 0.0
2014-Aug-08 02:31N 51°53' E 004°24'0 0.0
2014-Aug-08 01:33N 51°53' E 004°24'0 0.0
2014-Aug-08 00:33N 51°53' E 004°24'0 0.0
2014-Aug-07 23:33N 51°53' E 004°24'0 0.0
2014-Aug-07 22:32N 51°53' E 004°24'0 0.0
2014-Aug-07 21:32N 51°53' E 004°24'0 0.0
2014-Aug-07 20:31N 51°53' E 004°24'0 0.0
2014-Aug-07 19:31N 51°53' E 004°24'0 0.0
2014-Aug-07 18:31N 51°53' E 004°24'0 0.0
2014-Aug-07 17:31N 51°53' E 004°24'0 0.0
2014-Aug-07 16:31N 51°53' E 004°24'0 0.0
2014-Aug-07 15:31N 51°53' E 004°24'0 0.0
2014-Aug-07 14:31N 51°53' E 004°24'0 0.0
2014-Aug-07 13:34N 51°53' E 004°24'0 0.3
2014-Aug-07 12:33N 51°53' E 004°24'6 6.1
2014-Aug-07 11:33N 51°55' E 004°15'10 9.8
2014-Aug-07 10:34N 51°60' E 004°01'1414.2
2014-Aug-07 09:33N 51°58' E 003°39'1514.3
2014-Aug-07 08:32N 51°54' E 003°16'1414.7
2014-Aug-07 07:33N 51°49' E 002°54'1414.5
2014-Aug-07 06:33N 51°43' E 002°32'1514.5
2014-Aug-07 05:33N 51°32' E 002°18'1413.9
2014-Aug-07 04:33N 51°20' E 002°08'1413.6
2014-Aug-07 03:34N 51°10' E 001°53'1413.7
2014-Aug-07 02:33N 51°01' E 001°37'1313.2
2014-Aug-07 01:34N 50°50' E 001°24'1313.4
2014-Aug-07 00:33N 50°38' E 001°14'1414.1
2014-Aug-06 23:33N 50°30' E 000°56'1914.1
2014-Aug-06 22:10N 50°25' E 000°26'914.0
2014-Aug-06 21:33N 50°22' E 000°13'1413.6
2014-Aug-06 20:33N 50°19' W 000°07'1513.7
2014-Aug-06 19:28N 50°15' W 000°30'  
Track history (hours):
 
Tides and Currents Weather Stations Pressure Air Temp Water Temp Dewpoint Dewpoint Depression Visibility Wind Speed Wind Dir Waves Ship Positions

Maersk Dayton

Last reported at 2014-Aug-16 09:06 UTC. Time now 2014-Aug-31 04:33 UTC.
Position N 49°04' W 010°14'.
Warning: this ship's position is 14 days out of date.

Length 281 m; beam 32.2 m; draft 12.5 m.

Type: Ship (hazmat cat A). MMSI: 218024000.

Date/timePositionNaut miles runAvg speedWind from/ knotsBaromVisibWave heightAir tempDewpointWater temp
2014-Aug-16 09:06N 49°04' W 010°14'35518.9
2014-Aug-15 14:19N 50°15' W 001°16'1517.6
2014-Aug-15 13:29N 50°20' W 000°53'1516.1
2014-Aug-15 12:33N 50°24' W 000°31'1616.2
2014-Aug-15 11:33N 50°28' W 000°07'1716.8
2014-Aug-15 10:33N 50°33' E 000°19'1818.2
2014-Aug-15 09:33N 50°40' E 000°45'2020.5
2014-Aug-15 08:34N 50°52' E 001°11'2020.4
2014-Aug-15 07:33N 51°06' E 001°35'1818.4
2014-Aug-15 06:33N 51°20' E 001°54'1514.7
2014-Aug-15 05:33N 51°21' E 002°18'1716.6
2014-Aug-15 04:32N 51°22' E 002°45'1515.3
2014-Aug-15 03:33N 51°24' E 003°08'1515.3
2014-Aug-15 02:33N 51°25' E 003°33'10 9.8
2014-Aug-15 01:34N 51°21' E 003°47'10 9.7
2014-Aug-15 00:34N 51°23' E 004°02'1010.1
2014-Aug-14 23:34N 51°18' E 004°16'1 0.6
2014-Aug-14 22:31N 51°18' E 004°16'0 0.0
2014-Aug-14 21:31N 51°18' E 004°16'0 0.0
2014-Aug-14 20:31N 51°18' E 004°16'0 0.0
2014-Aug-14 19:31N 51°18' E 004°16'0 0.0
2014-Aug-14 18:33N 51°18' E 004°16'0 0.0
2014-Aug-14 17:28N 51°18' E 004°16'0 0.0
2014-Aug-14 16:33N 51°18' E 004°16'0 0.0
2014-Aug-14 15:33N 51°18' E 004°16'0 0.0
2014-Aug-14 14:33N 51°18' E 004°16'0 0.0
2014-Aug-14 13:33N 51°18' E 004°16'0 0.0
2014-Aug-14 12:33N 51°18' E 004°16'0 0.0
2014-Aug-14 11:33N 51°18' E 004°16'0 0.0
2014-Aug-14 10:33N 51°18' E 004°16'0 0.0
2014-Aug-14 09:33N 51°18' E 004°16'0 0.0
2014-Aug-14 08:33N 51°18' E 004°16'0 0.0
2014-Aug-14 07:33N 51°18' E 004°16'0 0.0
2014-Aug-14 06:32N 51°18' E 004°16'0 0.0
2014-Aug-14 05:32N 51°18' E 004°16'0 0.0
2014-Aug-14 04:32N 51°18' E 004°16'0 0.0
2014-Aug-14 03:33N 51°18' E 004°16'4 3.8
2014-Aug-14 02:33N 51°21' E 004°14'1110.7
2014-Aug-14 01:34N 51°25' E 003°58'1010.3
2014-Aug-14 00:33N 51°26' E 003°42'1212.3
2014-Aug-13 23:34N 51°24' E 003°22'1313.2
2014-Aug-13 22:33N 51°25' E 003°01'1614.5
2014-Aug-13 21:27N 51°39' E 003°12'1312.7
2014-Aug-13 20:28N 51°51' E 003°18'1313.8
2014-Aug-13 19:31N 52°04' E 003°21'1714.7
2014-Aug-13 18:24N 52°20' E 003°26'5913.9
2014-Aug-13 14:08N 53°09' E 004°23'1817.9
2014-Aug-13 13:06N 53°26' E 004°35'1017.1
2014-Aug-13 12:30N 53°31' E 004°49'1717.5
2014-Aug-13 11:33N 53°37' E 005°15'1716.8
2014-Aug-13 10:33N 53°43' E 005°42'1817.5
2014-Aug-13 09:33N 53°49' E 006°10'5518.3
2014-Aug-13 06:33N 54°01' E 007°40'1919.0
2014-Aug-13 05:33N 54°00' E 008°13'1818.0
2014-Aug-13 04:34N 53°54' E 008°41'1413.6
2014-Aug-13 03:34N 53°52' E 009°04'1110.8
2014-Aug-13 02:33N 53°49' E 009°22'1212.1
2014-Aug-13 01:33N 53°39' E 009°31'1010.3
2014-Aug-13 00:33N 53°34' E 009°46'5 5.1
2014-Aug-12 23:33N 53°32' E 009°55'0 0.0
2014-Aug-12 22:33N 53°32' E 009°55'0 0.0
2014-Aug-12 21:32N 53°32' E 009°55'0 0.0
2014-Aug-12 20:33N 53°32' E 009°55'0 0.0
2014-Aug-12 19:33N 53°32' E 009°55'0 0.0
2014-Aug-12 18:31N 53°32' E 009°55'0 0.0
2014-Aug-12 17:31N 53°32' E 009°55'0 0.0
2014-Aug-12 16:31N 53°32' E 009°55'0 0.0
2014-Aug-12 15:31N 53°32' E 009°55'0 0.0
2014-Aug-12 14:31N 53°32' E 009°55'0 0.0
2014-Aug-12 13:31N 53°32' E 009°55'0 0.0
2014-Aug-12 12:31N 53°32' E 009°55'0 0.0
2014-Aug-12 11:33N 53°32' E 009°55'0 0.0
2014-Aug-12 10:31N 53°32' E 009°55'0 0.0
2014-Aug-12 09:31N 53°32' E 009°55'0 0.0
2014-Aug-12 08:32N 53°32' E 009°55'0 0.0
2014-Aug-12 07:33N 53°32' E 009°55'0 0.0
2014-Aug-12 06:32N 53°32' E 009°55'0 0.0
2014-Aug-12 05:32N 53°32' E 009°55'0 0.0
2014-Aug-12 04:32N 53°32' E 009°55'0 0.0
2014-Aug-12 03:32N 53°32' E 009°55'0 0.0
2014-Aug-12 02:32N 53°32' E 009°55'0 0.0
2014-Aug-12 01:32N 53°32' E 009°55'0 0.0
2014-Aug-12 00:33N 53°32' E 009°55'0 0.0
2014-Aug-11 23:33N 53°32' E 009°55'0 0.0
2014-Aug-11 22:33N 53°32' E 009°55'0 0.0
2014-Aug-11 21:33N 53°32' E 009°55'0 0.0
2014-Aug-11 20:33N 53°32' E 009°55'0 0.0
2014-Aug-11 19:33N 53°32' E 009°55'0 0.0
2014-Aug-11 18:33N 53°32' E 009°55'0 0.0
2014-Aug-11 17:33N 53°32' E 009°55'0 0.0
2014-Aug-11 16:33N 53°32' E 009°55'0 0.0
2014-Aug-11 15:33N 53°32' E 009°55'0 0.0
2014-Aug-11 14:33N 53°32' E 009°55'0 0.0
2014-Aug-11 13:31N 53°32' E 009°55'0 0.0
2014-Aug-11 12:33N 53°32' E 009°55'0 0.0
2014-Aug-11 11:31N 53°32' E 009°55'0 0.0
2014-Aug-11 10:30N 53°32' E 009°55'0 0.0
2014-Aug-11 09:33N 53°32' E 009°55'0 0.0
2014-Aug-11 08:33N 53°32' E 009°55'0 0.0
2014-Aug-11 07:33N 53°32' E 009°55'0 0.0
2014-Aug-11 06:33N 53°32' E 009°55'1 1.0
2014-Aug-11 05:33N 53°33' E 009°53'8 8.0
2014-Aug-11 04:34N 53°34' E 009°40'1211.9
2014-Aug-11 03:33N 53°44' E 009°27'1413.6
2014-Aug-11 02:33N 53°53' E 009°10'1414.5
2014-Aug-11 01:33N 53°51' E 008°46'1515.0
2014-Aug-11 00:33N 53°59' E 008°25'1515.4
2014-Aug-10 23:33N 53°58' E 007°59'1515.2
2014-Aug-10 22:33N 53°56' E 007°33'3417.1
2014-Aug-10 20:33N 53°48' E 006°37'1717.5
2014-Aug-10 19:33N 53°43' E 006°09'1717.2
2014-Aug-10 18:33N 53°38' E 005°41'1717.4
2014-Aug-10 17:33N 53°32' E 005°13'2019.6
2014-Aug-10 16:34N 53°24' E 004°43'2120.5
2014-Aug-10 15:33N 53°06' E 004°27'2221.9
2014-Aug-10 14:33N 52°47' E 004°08'2222.0
2014-Aug-10 13:33N 52°34' E 003°39'6320.9
2014-Aug-10 10:34N 52°10' E 002°05'1918.8
2014-Aug-10 09:34N 51°54' E 001°48'1111.1
2014-Aug-10 08:33N 51°48' E 001°33'1616.3
2014-Aug-10 07:33N 51°35' E 001°16'1515.2
2014-Aug-10 06:33N 51°29' E 000°54'1313.4
2014-Aug-10 05:34N 51°30' E 000°32'1 1.3
2014-Aug-10 04:31N 51°30' E 000°30'0 0.0
2014-Aug-10 03:31N 51°30' E 000°30'0 0.0
2014-Aug-10 02:31N 51°30' E 000°30'0 0.0
2014-Aug-10 01:31N 51°30' E 000°30'0 0.0
2014-Aug-10 00:31N 51°30' E 000°30'0 0.0
2014-Aug-09 23:31N 51°30' E 000°30'0 0.0
2014-Aug-09 22:34N 51°30' E 000°30'0 0.0
2014-Aug-09 21:32N 51°30' E 000°30'0 0.0
2014-Aug-09 20:33N 51°30' E 000°30'0 0.0
2014-Aug-09 19:33N 51°30' E 000°30'0 0.0
2014-Aug-09 18:32N 51°30' E 000°30'0 0.0
2014-Aug-09 17:34N 51°30' E 000°30'0 0.0
2014-Aug-09 16:34N 51°30' E 000°30'0 0.0
2014-Aug-09 15:34N 51°30' E 000°30'2 1.7
2014-Aug-09 14:34N 51°30' E 000°33'1111.0
2014-Aug-09 13:34N 51°29' E 000°51'1312.7
2014-Aug-09 12:34N 51°33' E 001°10'1312.9
2014-Aug-09 11:34N 51°41' E 001°27'1212.0
2014-Aug-09 10:33N 51°51' E 001°36'3 2.7
2014-Aug-09 09:31N 51°53' E 001°40'0 0.2
2014-Aug-09 08:31N 51°53' E 001°40'0 0.0
2014-Aug-09 07:31N 51°53' E 001°40'0 0.0
2014-Aug-09 06:31N 51°53' E 001°40'0 0.0
2014-Aug-09 05:31N 51°53' E 001°40'0 0.2
2014-Aug-09 04:31N 51°53' E 001°40'0 0.1
2014-Aug-09 03:31N 51°53' E 001°40'0 0.0
2014-Aug-09 02:31N 51°53' E 001°40'0 0.0
2014-Aug-09 01:31N 51°53' E 001°40'0 0.0
2014-Aug-09 00:31N 51°53' E 001°40'0 0.1
2014-Aug-08 23:31N 51°53' E 001°40'0 0.0
2014-Aug-08 22:31N 51°53' E 001°40'0 0.2
2014-Aug-08 21:31N 51°53' E 001°39'0 0.2
2014-Aug-08 20:31N 51°53' E 001°39'0 0.0
2014-Aug-08 19:31N 51°53' E 001°39'0 0.0
2014-Aug-08 18:31N 51°53' E 001°39'0 0.0
2014-Aug-08 17:31N 51°53' E 001°39'0 0.1
2014-Aug-08 16:31N 51°53' E 001°39'0 0.3
2014-Aug-08 15:31N 51°53' E 001°40'1111.4
2014-Aug-08 14:33N 52°02' E 001°51'1615.8
2014-Aug-08 13:33N 52°09' E 002°14'3816.5
2014-Aug-08 11:15N 52°13' E 003°15'1216.8
2014-Aug-08 10:33N 52°13' E 003°35'1211.9
2014-Aug-08 09:33N 52°11' E 003°54'9 8.5
2014-Aug-08 08:33N 52°02' E 003°54'1514.8
2014-Aug-08 07:33N 51°55' E 004°15'6 5.8
2014-Aug-08 06:31N 51°53' E 004°24'0 0.0
2014-Aug-08 05:31N 51°53' E 004°24'0 0.0
2014-Aug-08 04:31N 51°53' E 004°24'0 0.0
2014-Aug-08 03:31N 51°53' E 004°24'0 0.0
2014-Aug-08 02:31N 51°53' E 004°24'0 0.0
2014-Aug-08 01:33N 51°53' E 004°24'0 0.0
2014-Aug-08 00:33N 51°53' E 004°24'0 0.0
2014-Aug-07 23:33N 51°53' E 004°24'0 0.0
2014-Aug-07 22:32N 51°53' E 004°24'0 0.0
2014-Aug-07 21:32N 51°53' E 004°24'0 0.0
2014-Aug-07 20:31N 51°53' E 004°24'0 0.0
2014-Aug-07 19:31N 51°53' E 004°24'0 0.0
2014-Aug-07 18:31N 51°53' E 004°24'0 0.0
2014-Aug-07 17:31N 51°53' E 004°24'0 0.0
2014-Aug-07 16:31N 51°53' E 004°24'0 0.0
2014-Aug-07 15:31N 51°53' E 004°24'0 0.0
2014-Aug-07 14:31N 51°53' E 004°24'0 0.0
2014-Aug-07 13:34N 51°53' E 004°24'0 0.3
2014-Aug-07 12:33N 51°53' E 004°24'6 6.1
2014-Aug-07 11:33N 51°55' E 004°15'10 9.8
2014-Aug-07 10:34N 51°60' E 004°01'1414.2
2014-Aug-07 09:33N 51°58' E 003°39'1514.3
2014-Aug-07 08:32N 51°54' E 003°16'1414.7
2014-Aug-07 07:33N 51°49' E 002°54'1414.5
2014-Aug-07 06:33N 51°43' E 002°32'1514.5
2014-Aug-07 05:33N 51°32' E 002°18'1413.9
2014-Aug-07 04:33N 51°20' E 002°08'1413.6
2014-Aug-07 03:34N 51°10' E 001°53'1413.7
2014-Aug-07 02:33N 51°01' E 001°37'1313.2
2014-Aug-07 01:34N 50°50' E 001°24'1313.4
2014-Aug-07 00:33N 50°38' E 001°14'1414.1
2014-Aug-06 23:33N 50°30' E 000°56'1914.1
2014-Aug-06 22:10N 50°25' E 000°26'914.0
2014-Aug-06 21:33N 50°22' E 000°13'1413.6
2014-Aug-06 20:33N 50°19' W 000°07'1513.7
2014-Aug-06 19:28N 50°15' W 000°30'  

Dump ship's entire track history